Time;durP1;ratioP1;P1;durP2;ratioP2;P2;SDS_P1;SDS_P2;PMS_P1;PMS_P2;Temp;Humidity;BMP_temperature;BMP_pressure;BME280_temperature;BME280_humidity;BME280_pressure;Samples;Min_cycle;Max_cycle;Signal;HPM_P1;HPM_P2
2021/10/07 00:00:37;;;;;;;18.45;11.77;;;13.50;57.10;;;;;;5023020;28;20041;-82
2021/10/07 00:03:03;;;;;;;15.65;10.98;;;13.50;57.20;;;;;;5023194;28;20026;-82
2021/10/07 00:05:29;;;;;;;18.35;11.80;;;13.50;57.30;;;;;;5010793;28;20420;-82
2021/10/07 00:07:55;;;;;;;20.83;11.57;;;13.40;57.30;;;;;;5025256;28;20041;-82
2021/10/07 00:10:22;;;;;;;18.17;11.57;;;13.40;57.30;;;;;;5006845;28;20029;-81
2021/10/07 00:12:48;;;;;;;17.92;12.63;;;13.40;57.30;;;;;;5026050;28;20388;-82
2021/10/07 00:15:14;;;;;;;20.67;12.30;;;13.40;58.00;;;;;;5024734;28;20056;-81
2021/10/07 00:17:40;;;;;;;20.02;12.63;;;13.40;57.30;;;;;;5006845;28;20472;-82
2021/10/07 00:20:08;;;;;;;19.58;12.05;;;13.40;57.40;;;;;;5026148;28;20029;-83
2021/10/07 00:22:35;;;;;;;20.80;12.57;;;13.40;57.40;;;;;;5021494;28;20108;-82
2021/10/07 00:25:00;;;;;;;18.27;11.52;;;13.30;57.40;;;;;;5011072;28;20036;-84
2021/10/07 00:27:26;;;;;;;16.48;11.10;;;13.30;57.40;;;;;;5025290;28;20029;-83
2021/10/07 00:29:57;;;;;;;21.25;12.13;;;13.30;57.40;;;;;;5025356;28;20095;-83
2021/10/07 00:32:27;;;;;;;19.10;12.35;;;13.30;57.40;;;;;;5022850;28;20033;-83
2021/10/07 00:40:08;;;;;;;21.13;12.13;;;13.30;57.40;;;;;;5024362;28;20049;-83
2021/10/07 00:42:34;;;;;;;16.90;11.40;;;13.30;57.50;;;;;;5024192;28;20045;-82
2021/10/07 00:45:00;;;;;;;21.35;11.98;;;13.20;57.50;;;;;;5023329;28;20032;-83
2021/10/07 00:47:26;;;;;;;17.55;11.38;;;13.30;57.60;;;;;;5023752;28;20029;-83
2021/10/07 00:49:52;;;;;;;19.20;11.35;;;13.20;57.60;;;;;;5023589;28;20444;-82
2021/10/07 00:52:20;;;;;;;20.42;12.07;;;13.20;57.70;;;;;;5024869;28;20052;-82
2021/10/07 00:54:52;;;;;;;21.83;11.93;;;13.20;57.70;;;;;;5023521;28;20068;-82
2021/10/07 00:57:20;;;;;;;27.25;12.23;;;13.20;57.80;;;;;;5022639;28;20488;-83
2021/10/07 00:59:47;;;;;;;21.75;12.60;;;13.10;57.80;;;;;;5022972;28;20547;-83
2021/10/07 01:02:14;;;;;;;20.27;12.85;;;13.10;57.80;;;;;;5024725;28;20037;-83
2021/10/07 01:04:40;;;;;;;24.92;14.02;;;13.10;57.90;;;;;;5016077;28;20125;-83
2021/10/07 01:07:07;;;;;;;21.00;13.13;;;13.10;58.00;;;;;;5025998;28;20080;-83
2021/10/07 01:09:33;;;;;;;22.80;14.02;;;13.00;58.00;;;;;;5023512;28;20088;-83
2021/10/07 01:12:02;;;;;;;24.92;13.50;;;13.00;58.10;;;;;;5026949;28;20040;-83
2021/10/07 01:14:46;;;;;;;22.77;12.80;;;13.00;58.20;;;;;;5022763;28;20539;-83
2021/10/07 01:17:16;;;;;;;22.70;12.43;;;13.00;58.30;;;;;;5024063;28;20037;-83
2021/10/07 01:19:44;;;;;;;22.67;13.43;;;12.90;58.30;;;;;;5023368;28;20159;-82
2021/10/07 01:22:10;;;;;;;24.25;13.52;;;13.00;58.30;;;;;;5004244;28;20153;-82
2021/10/07 01:24:36;;;;;;;21.33;13.27;;;12.90;58.30;;;;;;5003987;28;20040;-84
2021/10/07 01:27:03;;;;;;;25.60;13.70;;;12.90;58.40;;;;;;5025415;28;20065;-83
2021/10/07 01:29:29;;;;;;;24.00;14.05;;;12.90;58.50;;;;;;5006475;28;20038;-81
2021/10/07 01:31:55;;;;;;;22.95;14.20;;;12.90;58.50;;;;;;5009260;28;20420;-84
2021/10/07 01:34:26;;;;;;;22.73;14.27;;;12.80;58.40;;;;;;5004361;28;20033;-84
2021/10/07 01:36:52;;;;;;;25.70;15.35;;;12.80;58.40;;;;;;5009031;28;20029;-83
2021/10/07 01:39:19;;;;;;;26.17;14.90;;;12.80;58.40;;;;;;5024011;28;20044;-83
2021/10/07 01:41:45;;;;;;;27.98;15.77;;;12.90;58.40;;;;;;5004111;28;20033;-83
2021/10/07 01:44:12;;;;;;;27.65;15.05;;;12.90;58.40;;;;;;4988147;28;20022;-83
2021/10/07 01:46:38;;;;;;;29.00;15.73;;;12.90;58.30;;;;;;5006528;28;20459;-83
2021/10/07 01:49:07;;;;;;;28.63;17.13;;;12.80;58.30;;;;;;5022120;28;20052;-83
2021/10/07 01:51:34;;;;;;;25.02;16.13;;;12.80;58.20;;;;;;5020886;28;20038;-83
2021/10/07 01:54:02;;;;;;;27.52;16.92;;;12.80;58.30;;;;;;5022292;28;20036;-83
2021/10/07 01:56:28;;;;;;;25.35;15.75;;;12.80;58.20;;;;;;5023321;28;20128;-83
2021/10/07 01:58:53;;;;;;;29.58;16.13;;;12.80;58.20;;;;;;5002609;28;20179;-83
2021/10/07 02:01:19;;;;;;;31.92;16.98;;;12.80;58.20;;;;;;5023077;28;20033;-83
2021/10/07 02:03:46;;;;;;;32.50;16.48;;;12.80;58.30;;;;;;5021890;28;20033;-82
2021/10/07 02:06:12;;;;;;;27.00;16.48;;;12.80;58.30;;;;;;5023683;28;20052;-83
2021/10/07 02:08:39;;;;;;;30.08;17.52;;;12.70;58.20;;;;;;5023101;28;20036;-83
2021/10/07 02:11:05;;;;;;;36.47;18.02;;;12.70;58.30;;;;;;5021383;28;20025;-83
2021/10/07 02:13:31;;;;;;;33.25;17.85;;;12.70;58.40;;;;;;5021674;28;20040;-82
2021/10/07 02:15:58;;;;;;;31.50;16.90;;;12.70;58.40;;;;;;5005635;28;20520;-83
2021/10/07 02:18:25;;;;;;;26.25;17.08;;;12.70;58.40;;;;;;5020115;28;20472;-82
2021/10/07 02:20:51;;;;;;;29.35;18.00;;;12.60;58.40;;;;;;5004392;28;20489;-82
2021/10/07 02:23:17;;;;;;;32.08;17.55;;;12.60;58.40;;;;;;5019927;28;20029;-82
2021/10/07 02:25:43;;;;;;;29.45;17.08;;;12.60;58.40;;;;;;5004037;28;20369;-83
2021/10/07 02:28:09;;;;;;;28.23;18.00;;;12.60;58.30;;;;;;5020922;28;20070;-83
2021/10/07 02:30:35;;;;;;;31.75;16.88;;;12.50;58.40;;;;;;5007791;28;20221;-83
2021/10/07 02:33:01;;;;;;;24.85;16.75;;;12.50;58.50;;;;;;4988144;28;20033;-83
2021/10/07 02:35:27;;;;;;;27.05;16.70;;;12.50;58.50;;;;;;5003591;28;20033;-83
2021/10/07 02:37:53;;;;;;;27.55;17.42;;;12.50;58.50;;;;;;5021883;28;20530;-83
2021/10/07 02:40:20;;;;;;;31.27;17.55;;;12.50;58.60;;;;;;5022805;28;20040;-83
2021/10/07 02:42:46;;;;;;;25.00;16.20;;;12.40;58.60;;;;;;5005744;28;20491;-83
2021/10/07 02:45:17;;;;;;;29.58;17.02;;;12.40;58.70;;;;;;5021152;28;20076;-83
2021/10/07 02:47:43;;;;;;;31.38;17.40;;;12.40;58.70;;;;;;4992133;28;20040;-85
2021/10/07 02:50:10;;;;;;;32.10;18.50;;;12.30;58.70;;;;;;5021233;28;20029;-83
2021/10/07 02:52:37;;;;;;;36.42;18.70;;;12.30;58.80;;;;;;5021020;28;20174;-82
2021/10/07 02:55:03;;;;;;;34.78;18.85;;;12.30;58.80;;;;;;5003169;28;20181;-83
2021/10/07 02:57:29;;;;;;;29.63;17.95;;;12.30;58.80;;;;;;5008809;28;20098;-83
2021/10/07 02:59:55;;;;;;;29.70;17.90;;;12.30;58.80;;;;;;5007834;28;20034;-82
2021/10/07 03:02:21;;;;;;;32.22;19.42;;;12.30;58.80;;;;;;5023354;28;20037;-84
2021/10/07 03:04:51;;;;;;;32.47;18.05;;;12.30;58.80;;;;;;5021888;28;20026;-83
2021/10/07 03:07:21;;;;;;;30.88;19.27;;;12.20;58.80;;;;;;5022263;28;20037;-83
2021/10/07 03:09:47;;;;;;;29.35;18.35;;;12.30;59.40;;;;;;5022510;28;20439;-83
2021/10/07 03:12:13;;;;;;;32.45;20.23;;;12.20;58.70;;;;;;5022595;28;20378;-83
2021/10/07 03:14:40;;;;;;;37.78;19.25;;;12.20;58.70;;;;;;5000524;28;20065;-83
2021/10/07 03:17:06;;;;;;;32.35;19.58;;;12.20;58.80;;;;;;5003603;28;20498;-83
2021/10/07 03:19:32;;;;;;;36.70;19.83;;;12.10;58.80;;;;;;5003270;28;20046;-83
2021/10/07 03:21:58;;;;;;;35.25;20.65;;;12.20;58.90;;;;;;5023256;28;20118;-83
2021/10/07 03:24:24;;;;;;;34.88;19.70;;;12.20;59.00;;;;;;5021280;28;20487;-84
2021/10/07 03:26:50;;;;;;;33.78;19.15;;;12.10;59.00;;;;;;5015779;28;20475;-82
2021/10/07 03:29:16;;;;;;;34.28;20.45;;;12.10;59.00;;;;;;5009798;28;20026;-84
2021/10/07 03:31:42;;;;;;;39.60;19.95;;;12.10;58.90;;;;;;5020108;28;20092;-82
2021/10/07 03:34:08;;;;;;;33.47;18.77;;;12.10;59.00;;;;;;5007385;28;20037;-83
2021/10/07 03:36:34;;;;;;;31.85;19.75;;;12.10;59.00;;;;;;5026594;28;20120;-81
2021/10/07 03:39:00;;;;;;;33.40;20.30;;;12.10;58.90;;;;;;5024740;28;20095;-82
2021/10/07 03:41:26;;;;;;;33.72;19.98;;;12.10;58.90;;;;;;5006207;28;20416;-84
2021/10/07 03:43:52;;;;;;;35.35;20.05;;;12.10;58.90;;;;;;4990492;28;20036;-83
2021/10/07 03:46:18;;;;;;;36.95;19.30;;;12.10;59.00;;;;;;4995091;28;20121;-84
2021/10/07 03:48:47;;;;;;;34.22;20.02;;;12.00;59.00;;;;;;5008168;28;20029;-84
2021/10/07 03:51:13;;;;;;;31.45;18.30;;;12.00;59.30;;;;;;5025930;28;20064;-84
2021/10/07 03:53:39;;;;;;;41.95;19.48;;;12.00;59.50;;;;;;5008881;28;20040;-84
2021/10/07 03:56:05;;;;;;;32.10;18.08;;;11.90;59.40;;;;;;5008976;28;20495;-85
2021/10/07 03:58:31;;;;;;;30.30;18.20;;;11.90;59.50;;;;;;5025046;28;20821;-85
2021/10/07 04:00:57;;;;;;;35.65;18.77;;;11.90;59.70;;;;;;5010611;28;20091;-83
2021/10/07 04:03:23;;;;;;;27.83;17.67;;;11.90;59.80;;;;;;5008423;28;20515;-83
2021/10/07 04:05:49;;;;;;;27.67;17.42;;;11.90;59.90;;;;;;5011327;28;20708;-84
2021/10/07 04:08:16;;;;;;;33.60;18.77;;;11.90;60.00;;;;;;5006830;28;20067;-85
2021/10/07 04:10:42;;;;;;;30.65;17.50;;;11.90;60.00;;;;;;4993956;28;20124;-84
2021/10/07 04:13:08;;;;;;;26.95;17.50;;;11.90;60.10;;;;;;5023206;28;20458;-84
2021/10/07 04:15:34;;;;;;;24.95;16.60;;;12.00;60.00;;;;;;5022951;28;20140;-84
2021/10/07 04:18:00;;;;;;;27.08;17.17;;;12.00;60.00;;;;;;5024136;28;20037;-84
2021/10/07 04:20:29;;;;;;;32.72;17.23;;;12.00;59.90;;;;;;5024094;28;20403;-84
2021/10/07 04:22:55;;;;;;;24.05;16.25;;;12.00;59.90;;;;;;5005240;28;20327;-83
2021/10/07 04:25:21;;;;;;;24.08;16.95;;;12.00;59.90;;;;;;4989537;28;20064;-84
2021/10/07 04:27:47;;;;;;;28.08;16.45;;;12.00;59.90;;;;;;5024934;28;20057;-82
2021/10/07 04:30:13;;;;;;;31.85;16.85;;;12.00;59.90;;;;;;5007617;28;20522;-87
2021/10/07 04:32:39;;;;;;;24.92;16.98;;;12.00;59.80;;;;;;4999698;28;20041;-81
2021/10/07 04:35:06;;;;;;;26.90;17.00;;;12.00;59.80;;;;;;5023630;28;20407;-82
2021/10/07 04:37:32;;;;;;;30.00;16.90;;;12.10;59.80;;;;;;5024106;28;20042;-82
2021/10/07 04:39:58;;;;;;;30.60;17.10;;;12.00;59.80;;;;;;5024432;28;20036;-83
2021/10/07 04:42:24;;;;;;;31.38;18.58;;;12.10;59.80;;;;;;5022373;28;20124;-84
2021/10/07 04:44:50;;;;;;;26.75;17.10;;;12.10;59.80;;;;;;5006056;28;20104;-83
2021/10/07 04:47:16;;;;;;;29.80;16.52;;;12.10;59.80;;;;;;5022401;28;20033;-82
2021/10/07 04:49:42;;;;;;;31.10;17.40;;;12.10;59.80;;;;;;5023050;28;20036;-81
2021/10/07 04:52:07;;;;;;;29.60;16.70;;;12.10;59.80;;;;;;5022060;28;20053;-82
2021/10/07 04:54:33;;;;;;;26.02;16.85;;;12.10;59.80;;;;;;5022751;28;20424;-81
2021/10/07 04:56:59;;;;;;;30.73;17.05;;;12.10;59.80;;;;;;5023989;28;20404;-82
2021/10/07 04:59:25;;;;;;;26.83;16.05;;;12.10;59.80;;;;;;5003727;28;20052;-82
2021/10/07 05:01:51;;;;;;;37.10;18.17;;;12.10;59.70;;;;;;5005345;28;20566;-81
2021/10/07 05:04:17;;;;;;;32.88;16.83;;;12.10;59.80;;;;;;5022433;28;20129;-81
2021/10/07 05:06:43;;;;;;;26.45;16.50;;;12.20;59.80;;;;;;5024184;28;20376;-81
2021/10/07 05:09:08;;;;;;;28.60;16.55;;;12.20;59.80;;;;;;5022635;28;20085;-81
2021/10/07 05:11:34;;;;;;;29.38;18.02;;;12.20;59.80;;;;;;5020847;28;20044;-80
2021/10/07 05:14:00;;;;;;;26.58;17.10;;;12.30;59.80;;;;;;5009818;28;20057;-80
2021/10/07 05:16:26;;;;;;;26.27;15.80;;;12.50;59.80;;;;;;5024081;28;20056;-81
2021/10/07 05:18:52;;;;;;;24.15;15.45;;;12.60;59.70;;;;;;5003005;28;20033;-81
2021/10/07 05:21:18;;;;;;;27.77;16.08;;;12.80;59.60;;;;;;5023390;28;20036;-81
2021/10/07 05:23:44;;;;;;;25.92;15.45;;;13.00;59.60;;;;;;5022685;28;20029;-82
2021/10/07 05:26:10;;;;;;;27.15;16.35;;;13.20;59.60;;;;;;5004379;28;20037;-81
2021/10/07 05:28:36;;;;;;;26.10;15.15;;;13.30;59.40;;;;;;5022393;28;20041;-81
2021/10/07 05:31:02;;;;;;;28.52;15.35;;;13.50;59.40;;;;;;4988874;28;20083;-81
2021/10/07 05:33:29;;;;;;;26.70;14.30;;;13.60;59.30;;;;;;5005303;28;20041;-81
2021/10/07 05:35:55;;;;;;;22.80;14.55;;;13.80;59.10;;;;;;5022046;28;20061;-83
2021/10/07 05:38:21;;;;;;;21.48;14.75;;;14.00;59.00;;;;;;5021379;28;20038;-81
2021/10/07 05:40:47;;;;;;;23.15;13.85;;;14.00;59.00;;;;;;4991436;28;20033;-80
2021/10/07 05:43:13;;;;;;;20.27;13.00;;;14.20;59.10;;;;;;5022055;28;20029;-80
2021/10/07 05:45:39;;;;;;;19.83;12.52;;;14.30;58.90;;;;;;5008046;28;20121;-80
2021/10/07 05:48:05;;;;;;;20.80;13.02;;;14.40;58.80;;;;;;4988077;28;20331;-81
2021/10/07 05:50:31;;;;;;;20.17;13.05;;;14.50;58.70;;;;;;5018719;28;20044;-80
2021/10/07 05:52:57;;;;;;;23.52;13.20;;;14.60;58.70;;;;;;5023682;28;20030;-81
2021/10/07 05:55:23;;;;;;;21.48;13.25;;;14.70;58.60;;;;;;5023721;28;20124;-82
2021/10/07 05:57:49;;;;;;;17.80;12.93;;;14.80;58.40;;;;;;5022074;28;20204;-82
2021/10/07 06:00:15;;;;;;;22.58;12.73;;;14.90;58.30;;;;;;5021996;28;20041;-81
2021/10/07 06:02:41;;;;;;;19.15;12.25;;;15.00;58.10;;;;;;5000916;28;20038;-81
2021/10/07 06:05:10;;;;;;;17.67;11.75;;;15.10;58.00;;;;;;5024653;28;20025;-81
2021/10/07 06:07:35;;;;;;;17.65;11.55;;;15.20;58.30;;;;;;4991761;28;20484;-81
2021/10/07 06:10:02;;;;;;;17.10;11.93;;;15.30;58.40;;;;;;5021418;28;20117;-81
2021/10/07 06:12:28;;;;;;;21.05;13.00;;;15.40;58.50;;;;;;5007781;28;20083;-82
2021/10/07 06:14:54;;;;;;;19.45;12.65;;;15.60;58.40;;;;;;5021987;28;20057;-82
2021/10/07 06:17:20;;;;;;;21.98;12.50;;;15.70;57.90;;;;;;5022461;28;20034;-82
2021/10/07 06:19:49;;;;;;;21.88;12.95;;;15.80;57.60;;;;;;5022709;28;20041;-82
2021/10/07 06:22:15;;;;;;;20.73;12.38;;;15.90;57.30;;;;;;5002339;28;20570;-81
2021/10/07 06:24:41;;;;;;;27.83;13.85;;;15.90;56.90;;;;;;5005880;28;20034;-82
2021/10/07 06:27:07;;;;;;;21.08;13.02;;;16.00;57.30;;;;;;5024112;28;20025;-82
2021/10/07 06:29:33;;;;;;;21.65;13.07;;;16.10;56.60;;;;;;5020566;28;20029;-83
2021/10/07 06:31:59;;;;;;;20.95;13.25;;;16.20;56.50;;;;;;5021039;28;20527;-83
2021/10/07 06:34:25;;;;;;;24.27;13.98;;;16.30;56.50;;;;;;5005402;28;20048;-83
2021/10/07 06:36:50;;;;;;;24.90;13.05;;;16.40;56.40;;;;;;5021568;28;20164;-82
2021/10/07 06:39:16;;;;;;;17.50;12.07;;;16.40;56.80;;;;;;5023325;28;20056;-81
2021/10/07 06:41:44;;;;;;;19.52;11.75;;;16.50;57.50;;;;;;5021249;28;20029;-82
2021/10/07 06:44:11;;;;;;;17.30;11.20;;;16.60;58.00;;;;;;5006424;28;20036;-82
2021/10/07 06:46:37;;;;;;;18.63;12.23;;;16.70;58.30;;;;;;5003765;28;20033;-82
2021/10/07 06:49:03;;;;;;;18.42;11.90;;;16.80;58.50;;;;;;5021128;28;20040;-83
2021/10/07 06:51:30;;;;;;;17.25;11.43;;;16.90;58.60;;;;;;5020619;28;20380;-84
2021/10/07 06:53:58;;;;;;;20.50;11.45;;;16.90;58.20;;;;;;5021557;28;20490;-82
2021/10/07 06:56:24;;;;;;;17.23;11.73;;;17.00;57.60;;;;;;5021237;28;20514;-82
2021/10/07 06:58:54;;;;;;;18.38;11.57;;;17.10;57.20;;;;;;5007735;28;20037;-82
2021/10/07 07:01:25;;;;;;;15.90;10.27;;;17.10;56.80;;;;;;5021245;28;20129;-82
2021/10/07 07:03:52;;;;;;;15.50;10.15;;;17.20;56.50;;;;;;5003325;28;20048;-84
2021/10/07 07:06:20;;;;;;;19.85;10.95;;;17.20;56.20;;;;;;5020030;28;20038;-85
2021/10/07 07:08:46;;;;;;;15.32;9.18;;;17.30;56.10;;;;;;5003541;28;20041;-85
2021/10/07 07:11:12;;;;;;;17.98;9.82;;;17.30;56.80;;;;;;5025614;28;20041;-85
2021/10/07 07:13:38;;;;;;;18.40;8.23;;;17.40;56.70;;;;;;5007189;28;20111;-89
2021/10/07 07:16:04;;;;;;;19.20;9.57;;;17.50;56.90;;;;;;5000366;28;20049;-85
2021/10/07 07:18:30;;;;;;;11.85;7.93;;;17.60;57.70;;;;;;5037558;28;20041;-82
2021/10/07 07:20:56;;;;;;;15.38;8.80;;;17.60;58.40;;;;;;5025029;28;20139;-82
2021/10/07 07:23:22;;;;;;;12.77;8.55;;;17.70;58.90;;;;;;5025218;28;20121;-84
2021/10/07 07:25:48;;;;;;;16.15;8.88;;;17.70;60.00;;;;;;4999563;28;20033;-85
2021/10/07 07:28:14;;;;;;;17.30;10.00;;;17.70;59.20;;;;;;5032668;28;20033;-85
2021/10/07 07:30:41;;;;;;;13.20;9.18;;;17.80;57.40;;;;;;5015150;28;20037;-84
2021/10/07 07:33:07;;;;;;;12.70;9.13;;;17.80;56.10;;;;;;5014255;28;20033;-84
2021/10/07 07:35:34;;;;;;;14.85;9.48;;;17.90;54.80;;;;;;5028752;28;20044;-89
2021/10/07 07:38:03;;;;;;;12.55;8.43;;;17.90;53.20;;;;;;5007920;28;20497;-83
2021/10/07 07:40:33;;;;;;;9.52;7.60;;;17.90;52.50;;;;;;5023766;28;20414;-83
2021/10/07 07:42:59;;;;;;;14.82;9.05;;;17.90;52.30;;;;;;4994629;28;20041;-83
2021/10/07 07:45:25;;;;;;;13.23;8.48;;;17.90;51.50;;;;;;5006357;28;20558;-83
2021/10/07 07:47:52;;;;;;;17.02;9.10;;;17.90;51.00;;;;;;5022658;28;20038;-81
2021/10/07 07:50:19;;;;;;;21.33;8.68;;;17.90;50.70;;;;;;5010219;28;20029;-83
2021/10/07 07:52:46;;;;;;;12.50;8.23;;;17.90;50.00;;;;;;5007822;28;20474;-82
2021/10/07 07:55:12;;;;;;;14.45;9.07;;;17.90;49.20;;;;;;5023758;28;20384;-82
2021/10/07 07:57:39;;;;;;;14.07;8.95;;;17.90;49.20;;;;;;5022537;28;20042;-83
2021/10/07 08:00:06;;;;;;;13.88;9.20;;;17.90;49.60;;;;;;5024778;28;20145;-81
2021/10/07 08:02:38;;;;;;;14.77;7.97;;;17.90;49.30;;;;;;5024319;28;20172;-82
2021/10/07 08:05:05;;;;;;;13.43;7.65;;;17.90;48.20;;;;;;5024414;28;20049;-85
2021/10/07 08:07:30;;;;;;;13.45;7.80;;;17.90;47.50;;;;;;5007545;28;20033;-83
2021/10/07 08:09:56;;;;;;;11.15;8.18;;;17.90;47.70;;;;;;5024012;28;20118;-83
2021/10/07 08:12:22;;;;;;;18.63;8.90;;;17.80;48.30;;;;;;5015810;28;20026;-85
2021/10/07 08:14:49;;;;;;;12.18;8.25;;;17.80;48.00;;;;;;5016946;28;20087;-84
2021/10/07 08:17:15;;;;;;;13.50;7.50;;;17.80;47.80;;;;;;5035657;28;20463;-84
2021/10/07 08:19:42;;;;;;;13.48;8.23;;;17.80;47.80;;;;;;5034192;28;20068;-84
2021/10/07 08:22:09;;;;;;;12.05;7.90;;;17.80;47.70;;;;;;5032965;28;20049;-83
2021/10/07 08:24:35;;;;;;;16.02;8.85;;;17.70;47.70;;;;;;5015171;28;20060;-84
2021/10/07 08:27:03;;;;;;;14.13;8.18;;;17.70;47.20;;;;;;5016026;28;20029;-84
2021/10/07 08:29:29;;;;;;;13.45;8.15;;;17.70;47.40;;;;;;5015731;28;20033;-83
2021/10/07 08:31:56;;;;;;;15.93;7.82;;;17.70;47.70;;;;;;4999615;28;20152;-84
2021/10/07 08:34:22;;;;;;;10.85;7.18;;;17.70;47.10;;;;;;5014633;28;20444;-84
2021/10/07 08:36:48;;;;;;;12.32;6.65;;;17.60;46.50;;;;;;5034076;28;20087;-84
2021/10/07 08:39:16;;;;;;;12.80;7.10;;;17.60;46.10;;;;;;5016454;28;20043;-84
2021/10/07 08:41:47;;;;;;;12.20;6.70;;;17.60;46.30;;;;;;5033577;28;20117;-84
2021/10/07 08:44:18;;;;;;;10.68;6.65;;;17.60;46.10;;;;;;5030713;28;20112;-84
2021/10/07 08:46:50;;;;;;;9.63;5.93;;;17.50;45.90;;;;;;5033278;28;20040;-84
2021/10/07 08:49:20;;;;;;;11.85;7.35;;;17.50;45.40;;;;;;5015711;28;20041;-84
2021/10/07 08:51:47;;;;;;;11.85;6.00;;;17.50;45.40;;;;;;5033906;28;20537;-84
2021/10/07 08:54:13;;;;;;;11.05;6.30;;;17.40;45.40;;;;;;5014493;28;20030;-84
2021/10/07 08:56:39;;;;;;;9.52;5.85;;;17.40;45.20;;;;;;5012324;28;20033;-83
2021/10/07 08:59:07;;;;;;;10.52;5.90;;;17.40;44.60;;;;;;5022918;28;20083;-85
2021/10/07 09:01:44;;;;;;;9.38;5.88;;;17.30;44.80;;;;;;5024726;28;20033;-87
2021/10/07 09:04:26;;;;;;;9.98;6.20;;;17.30;45.00;;;;;;5006153;28;20033;-89
2021/10/07 09:06:58;;;;;;;12.50;6.47;;;17.20;44.80;;;;;;5024348;28;20451;-87
2021/10/07 09:09:25;;;;;;;12.43;7.47;;;17.20;45.10;;;;;;5027629;28;20071;-85
2021/10/07 09:11:57;;;;;;;11.27;6.43;;;17.20;45.50;;;;;;5033556;28;20029;-84
2021/10/07 09:14:27;;;;;;;10.70;6.35;;;17.10;45.90;;;;;;5018808;28;20041;-86
2021/10/07 09:16:54;;;;;;;11.00;6.10;;;17.10;45.90;;;;;;5018688;28;20053;-89
2021/10/07 09:19:30;;;;;;;8.13;6.25;;;17.10;45.80;;;;;;5025673;28;20034;-87
2021/10/07 09:22:11;;;;;;;8.88;5.93;;;17.10;46.20;;;;;;5006927;28;20104;-86
2021/10/07 09:24:41;;;;;;;9.48;6.05;;;17.10;45.90;;;;;;5008781;28;20049;-85
2021/10/07 09:27:10;;;;;;;7.10;5.20;;;17.10;45.90;;;;;;5024306;28;20029;-85
2021/10/07 09:29:47;;;;;;;10.30;5.60;;;17.10;45.90;;;;;;5022683;28;20181;-86
2021/10/07 09:32:15;;;;;;;10.20;5.15;;;17.00;46.30;;;;;;5010004;28;20072;-86
2021/10/07 09:34:47;;;;;;;8.20;4.97;;;17.10;45.90;;;;;;5004964;28;20033;-86
2021/10/07 09:37:29;;;;;;;8.65;5.85;;;17.00;45.50;;;;;;5024016;28;20391;-86
2021/10/07 09:39:59;;;;;;;9.30;5.43;;;16.90;45.40;;;;;;5009257;28;20025;-87
2021/10/07 09:42:28;;;;;;;10.38;5.45;;;17.00;46.20;;;;;;5009728;28;20732;-87
2021/10/07 09:44:59;;;;;;;9.85;5.20;;;16.90;46.60;;;;;;5005436;28;20041;-87
2021/10/07 09:47:31;;;;;;;8.68;5.32;;;16.90;46.60;;;;;;5008891;28;20034;-87
2021/10/07 09:50:16;;;;;;;6.90;4.95;;;16.90;46.90;;;;;;5020259;28;20036;-87
2021/10/07 09:52:43;;;;;;;9.00;5.25;;;16.90;46.70;;;;;;5008572;28;20063;-87
2021/10/07 09:55:11;;;;;;;8.75;5.20;;;16.90;47.10;;;;;;5020495;28;20030;-88
2021/10/07 09:57:50;;;;;;;10.13;5.78;;;16.90;47.20;;;;;;5003659;28;20038;-86
2021/10/07 10:00:16;;;;;;;9.13;5.70;;;16.90;46.10;;;;;;5023884;28;20057;-88
2021/10/07 10:02:43;;;;;;;9.25;5.30;;;16.90;46.30;;;;;;5008583;28;20507;-89
2021/10/07 10:05:10;;;;;;;7.75;5.43;;;16.90;46.30;;;;;;5035611;28;20083;-84
2021/10/07 10:07:36;;;;;;;10.23;5.63;;;16.80;46.10;;;;;;5034469;28;20060;-86
2021/10/07 10:10:04;;;;;;;7.97;5.28;;;16.80;46.00;;;;;;5047625;28;20095;-87
2021/10/07 10:12:31;;;;;;;10.02;5.57;;;16.80;46.00;;;;;;5024476;28;20037;-87
2021/10/07 10:14:56;;;;;;;7.18;5.10;;;16.80;46.20;;;;;;5022167;28;20485;-87
2021/10/07 10:17:23;;;;;;;10.07;5.70;;;16.80;46.20;;;;;;5023517;28;20625;-87
2021/10/07 10:19:52;;;;;;;8.65;5.30;;;16.80;46.10;;;;;;5021750;28;20033;-87
2021/10/07 10:22:23;;;;;;;7.57;5.07;;;16.80;46.10;;;;;;5020652;28;20044;-87
2021/10/07 10:24:50;;;;;;;5.82;5.15;;;16.80;45.70;;;;;;5022714;28;20117;-87
2021/10/07 10:27:17;;;;;;;7.95;4.93;;;16.80;45.40;;;;;;5023884;28;20036;-87
2021/10/07 10:29:43;;;;;;;5.65;4.50;;;16.80;45.40;;;;;;5021034;28;20033;-87
2021/10/07 10:32:12;;;;;;;7.72;5.07;;;16.80;45.40;;;;;;5022266;28;20025;-86
2021/10/07 10:34:44;;;;;;;6.78;4.82;;;16.70;45.40;;;;;;4996490;28;20389;-87
2021/10/07 10:37:12;;;;;;;9.15;5.22;;;16.70;45.50;;;;;;5018861;28;20049;-86
2021/10/07 10:39:47;;;;;;;6.10;5.07;;;16.80;45.10;;;;;;5022121;28;20041;-87
2021/10/07 10:42:16;;;;;;;9.18;5.65;;;16.70;45.00;;;;;;5023212;28;20052;-87
2021/10/07 10:44:51;;;;;;;7.68;5.35;;;16.70;44.80;;;;;;5020149;28;20048;-87
2021/10/07 10:47:26;;;;;;;7.03;5.70;;;16.70;44.60;;;;;;5002204;28;20497;-87
2021/10/07 10:50:10;;;;;;;8.50;5.60;;;16.70;44.60;;;;;;5024037;28;20032;-87
2021/10/07 10:52:46;;;;;;;5.88;4.80;;;16.70;44.30;;;;;;5002328;28;20049;-87
2021/10/07 10:55:18;;;;;;;9.10;5.10;;;16.70;45.00;;;;;;5000599;28;20037;-87
2021/10/07 10:57:59;;;;;;;7.25;4.43;;;16.70;45.40;;;;;;4990807;28;20037;-86
2021/10/07 11:00:25;;;;;;;7.65;5.07;;;16.70;45.40;;;;;;5018038;28;20037;-87
2021/10/07 11:02:54;;;;;;;7.47;5.18;;;16.70;45.40;;;;;;5041227;28;20123;-87
2021/10/07 11:05:20;;;;;;;7.85;4.80;;;16.70;45.20;;;;;;5037347;28;20040;-86
2021/10/07 11:08:07;;;;;;;7.82;5.10;;;16.70;45.10;;;;;;5008283;28;20789;-87
2021/10/07 11:10:43;;;;;;;8.93;5.35;;;16.70;45.10;;;;;;5020788;28;20033;-87
2021/10/07 11:13:27;;;;;;;7.43;5.07;;;16.70;45.40;;;;;;5020519;28;20029;-85
2021/10/07 11:15:57;;;;;;;6.28;4.60;;;16.80;45.70;;;;;;5005673;28;20526;-86
2021/10/07 11:18:32;;;;;;;6.10;4.97;;;16.70;45.90;;;;;;5006123;28;20029;-87
2021/10/07 11:21:26;;;;;;;5.63;4.93;;;16.80;45.70;;;;;;5022306;28;20050;-88
2021/10/07 11:23:54;;;;;;;5.53;4.88;;;16.80;45.30;;;;;;5019329;28;20060;-86
2021/10/07 11:26:22;;;;;;;7.88;4.95;;;16.80;45.20;;;;;;5002548;28;20034;-86
2021/10/07 11:28:49;;;;;;;9.02;5.18;;;16.80;45.20;;;;;;5006954;28;20045;-86
2021/10/07 11:31:19;;;;;;;6.80;4.80;;;16.80;45.10;;;;;;4986657;28;20073;-87
2021/10/07 11:33:51;;;;;;;8.02;5.47;;;16.80;45.10;;;;;;5021410;28;20625;-89
2021/10/07 11:36:22;;;;;;;9.85;4.97;;;16.80;45.20;;;;;;4991417;28;20040;-87
2021/10/07 11:38:49;;;;;;;7.45;5.18;;;16.80;45.00;;;;;;5007067;28;20037;-84
2021/10/07 11:41:23;;;;;;;6.20;4.50;;;16.80;44.90;;;;;;5004231;28;20085;-85
2021/10/07 11:43:49;;;;;;;6.43;5.15;;;16.80;44.80;;;;;;5006610;28;20607;-85
2021/10/07 11:46:17;;;;;;;6.57;5.10;;;16.80;44.30;;;;;;4991017;28;20391;-87
2021/10/07 11:48:44;;;;;;;7.53;4.45;;;16.80;44.10;;;;;;5003223;28;20033;-85
2021/10/07 11:51:11;;;;;;;7.97;5.07;;;16.70;44.20;;;;;;4995490;28;20045;-86
2021/10/07 11:53:42;;;;;;;8.75;5.35;;;16.80;44.80;;;;;;5016584;28;20137;-86
2021/10/07 11:56:14;;;;;;;9.52;5.68;;;16.80;44.60;;;;;;5029705;28;20036;-84
2021/10/07 11:58:41;;;;;;;9.23;5.47;;;16.80;44.70;;;;;;5018151;28;20068;-86
2021/10/07 12:01:09;;;;;;;5.85;4.97;;;16.80;45.10;;;;;;4998290;28;20068;-83
2021/10/07 12:03:37;;;;;;;8.02;5.47;;;16.70;45.70;;;;;;5010368;28;20038;-86
2021/10/07 12:06:09;;;;;;;7.55;5.50;;;16.80;46.00;;;;;;5010785;28;20733;-83
2021/10/07 12:08:37;;;;;;;7.65;5.47;;;16.80;45.80;;;;;;5010973;28;20083;-85
2021/10/07 12:11:06;;;;;;;10.30;6.32;;;16.80;45.70;;;;;;5006522;28;20030;-84
2021/10/07 12:13:34;;;;;;;8.80;5.25;;;16.80;45.70;;;;;;5023645;28;20037;-84
2021/10/07 12:16:02;;;;;;;9.48;5.93;;;16.80;45.90;;;;;;5024071;28;20132;-84
2021/10/07 12:18:30;;;;;;;10.73;5.68;;;16.80;46.00;;;;;;5008625;28;20088;-81
2021/10/07 12:21:04;;;;;;;9.57;6.20;;;16.80;45.50;;;;;;5009880;28;20026;-83
2021/10/07 12:23:33;;;;;;;8.77;6.28;;;16.80;45.40;;;;;;5023181;28;20493;-84
2021/10/07 12:26:02;;;;;;;11.35;6.22;;;16.80;45.50;;;;;;5004979;28;20106;-83
2021/10/07 12:28:29;;;;;;;9.07;6.07;;;16.80;45.20;;;;;;5005320;28;20034;-82
2021/10/07 12:31:04;;;;;;;11.35;5.63;;;16.80;45.40;;;;;;5010489;28;20029;-83
2021/10/07 12:33:32;;;;;;;13.50;5.43;;;16.80;45.20;;;;;;5014747;28;20044;-84
2021/10/07 12:35:59;;;;;;;7.80;5.30;;;16.80;45.40;;;;;;5034423;28;20037;-82
2021/10/07 12:38:26;;;;;;;9.45;6.13;;;16.80;44.80;;;;;;5015892;28;20026;-84
2021/10/07 12:40:59;;;;;;;9.48;6.40;;;16.80;44.30;;;;;;5014925;28;20420;-82